createdAt,value
2023-03-06T00:01:00.354Z,12.60
2023-03-06T00:03:28.490Z,15.07
2023-03-06T00:05:59.996Z,14.57
2023-03-06T00:08:28.970Z,14.30
2023-03-06T00:10:57.153Z,14.17
2023-03-06T00:13:24.759Z,13.93
2023-03-06T00:15:51.922Z,14.37
2023-03-06T00:18:18.964Z,13.07
2023-03-06T00:20:46.489Z,14.10
2023-03-06T00:23:13.773Z,14.57
2023-03-06T00:25:45.731Z,15.07
2023-03-06T00:28:16.051Z,13.80
2023-03-06T00:30:44.621Z,13.73
2023-03-06T00:33:12.206Z,14.07
2023-03-06T00:35:41.240Z,14.77
2023-03-06T00:38:10.443Z,15.80
2023-03-06T00:40:37.390Z,14.60
2023-03-06T00:43:04.497Z,15.17
2023-03-06T00:45:31.555Z,13.30
2023-03-06T00:47:58.680Z,14.47
2023-03-06T00:50:25.666Z,15.33
2023-03-06T00:52:52.777Z,13.40
2023-03-06T00:55:19.811Z,14.50
2023-03-06T00:57:46.825Z,14.27
2023-03-06T01:00:14.558Z,15.63
2023-03-06T01:02:41.591Z,13.50
2023-03-06T01:05:09.471Z,13.60
2023-03-06T01:07:37.163Z,13.20
2023-03-06T01:10:08.324Z,14.10
2023-03-06T01:12:35.765Z,13.57
2023-03-06T01:15:04.625Z,14.50
2023-03-06T01:17:31.636Z,14.67
2023-03-06T01:19:58.675Z,14.77
2023-03-06T01:22:25.791Z,16.10
2023-03-06T01:24:52.812Z,14.83
2023-03-06T01:27:19.802Z,13.67
2023-03-06T01:29:46.754Z,14.00
2023-03-06T01:32:13.810Z,13.70
2023-03-06T01:34:40.832Z,14.03
2023-03-06T01:37:07.851Z,13.80
2023-03-06T01:39:34.802Z,14.53
2023-03-06T01:42:01.808Z,15.57
2023-03-06T01:44:28.964Z,13.23
2023-03-06T01:46:56.065Z,14.30
2023-03-06T01:49:35.697Z,14.13
2023-03-06T01:52:18.349Z,14.33
2023-03-06T01:54:52.752Z,14.23
2023-03-06T01:57:28.926Z,16.20
2023-03-06T02:00:25.383Z,15.60
2023-03-06T02:03:15.964Z,14.30
2023-03-06T02:05:44.342Z,13.60
2023-03-06T02:08:16.101Z,14.90
2023-03-06T02:11:10.799Z,13.67
2023-03-06T02:13:38.700Z,13.63
2023-03-06T02:16:09.778Z,16.70
2023-03-06T02:18:38.797Z,13.80
2023-03-06T02:21:20.453Z,14.70
2023-03-06T02:24:19.880Z,15.33
2023-03-06T02:26:48.229Z,12.60
2023-03-06T02:29:23.726Z,13.83
2023-03-06T02:31:50.856Z,14.90
2023-03-06T02:34:20.463Z,14.03
2023-03-06T02:37:02.965Z,13.67
2023-03-06T02:39:33.672Z,13.13
2023-03-06T02:42:00.701Z,12.70
2023-03-06T02:44:29.077Z,13.63
2023-03-06T02:46:56.135Z,14.67
2023-03-06T02:49:25.368Z,14.23
2023-03-06T02:51:53.401Z,15.93
2023-03-06T02:54:20.345Z,15.00
2023-03-06T02:56:47.469Z,17.50
2023-03-06T02:59:14.433Z,18.57
2023-03-06T03:01:41.408Z,15.67
2023-03-06T03:04:09.226Z,15.00
2023-03-06T03:06:36.241Z,16.47
2023-03-06T03:09:03.321Z,16.57
2023-03-06T03:11:30.336Z,15.60
2023-03-06T03:13:57.332Z,14.83
2023-03-06T03:16:24.430Z,16.97
2023-03-06T03:18:51.534Z,14.43
2023-03-06T03:21:18.891Z,15.37
2023-03-06T03:23:45.933Z,13.83
2023-03-06T03:26:23.113Z,14.27
2023-03-06T03:28:50.149Z,13.07
2023-03-06T03:31:17.533Z,14.17
2023-03-06T03:33:44.664Z,14.13
2023-03-06T03:36:11.708Z,13.77
2023-03-06T03:38:38.658Z,13.47
2023-03-06T03:41:05.867Z,13.60
2023-03-06T03:43:32.881Z,14.67
2023-03-06T03:45:59.912Z,14.50
2023-03-06T03:48:26.919Z,15.23
2023-03-06T03:50:53.916Z,15.67
2023-03-06T03:53:20.940Z,17.00
2023-03-06T03:55:48.969Z,15.27
2023-03-06T03:58:15.894Z,14.80
2023-03-06T04:00:42.940Z,15.43
2023-03-06T04:03:10.028Z,14.93
2023-03-06T04:05:36.968Z,14.30
2023-03-06T04:08:05.684Z,13.60
2023-03-06T04:10:34.473Z,13.30
2023-03-06T04:13:01.496Z,13.63
2023-03-06T04:15:28.784Z,14.47
2023-03-06T04:17:55.684Z,15.33
2023-03-06T04:20:22.663Z,15.20
2023-03-06T04:22:49.744Z,15.17
2023-03-06T04:25:16.975Z,14.23
2023-03-06T04:27:43.933Z,16.50
2023-03-06T04:30:12.186Z,15.80
2023-03-06T04:32:39.272Z,15.37
2023-03-06T04:35:06.745Z,18.47
2023-03-06T04:37:33.704Z,16.20
2023-03-06T04:40:00.750Z,18.40
2023-03-06T04:42:27.903Z,15.57
2023-03-06T04:44:54.907Z,14.93
2023-03-06T04:47:21.798Z,14.93
2023-03-06T04:49:48.818Z,16.37
2023-03-06T04:52:15.746Z,16.10
2023-03-06T04:54:43.454Z,14.97
2023-03-06T04:57:11.145Z,15.67
2023-03-06T04:59:39.246Z,16.57
2023-03-06T05:02:06.565Z,17.30
2023-03-06T05:04:33.541Z,16.20
2023-03-06T05:07:00.627Z,16.17
2023-03-06T05:09:27.608Z,16.40
2023-03-06T05:11:54.640Z,15.70
2023-03-06T05:14:21.636Z,14.40
2023-03-06T05:16:48.688Z,15.30
2023-03-06T05:19:15.656Z,15.10
2023-03-06T05:21:42.863Z,16.90
2023-03-06T05:24:10.341Z,16.20
2023-03-06T05:26:37.385Z,17.30
2023-03-06T05:29:04.621Z,15.50
2023-03-06T05:31:31.729Z,16.40
2023-03-06T05:33:59.532Z,16.13
2023-03-06T05:36:27.272Z,18.20
2023-03-06T05:38:54.270Z,23.03
2023-03-06T05:41:21.205Z,23.10
2023-03-06T05:43:48.285Z,18.60
2023-03-06T05:46:15.517Z,17.27
2023-03-06T05:48:42.524Z,16.83
2023-03-06T05:51:12.035Z,18.33
2023-03-06T05:53:39.189Z,16.70
2023-03-06T05:56:11.232Z,16.43
2023-03-06T05:58:39.127Z,20.30
2023-03-06T06:01:15.549Z,19.27
2023-03-06T06:03:43.386Z,16.70
2023-03-06T06:06:13.448Z,16.37
2023-03-06T06:08:41.779Z,16.47
2023-03-06T06:11:11.809Z,16.50
2023-03-06T06:13:39.450Z,16.27
2023-03-06T06:16:12.680Z,16.17
2023-03-06T06:18:41.293Z,17.70
2023-03-06T06:21:11.948Z,16.60
2023-03-06T06:23:39.305Z,17.30
2023-03-06T06:26:09.919Z,18.07
2023-03-06T06:28:37.903Z,18.47
2023-03-06T06:31:12.628Z,16.20
2023-03-06T06:33:41.695Z,18.00
2023-03-06T06:36:22.116Z,16.03
2023-03-06T06:38:51.104Z,17.57
2023-03-06T06:41:53.062Z,17.03
2023-03-06T06:44:08.774Z,17.47
2023-03-06T06:47:20.732Z,17.60
2023-03-06T06:49:24.350Z,18.67
2023-03-06T06:51:51.324Z,18.60
2023-03-06T06:54:20.061Z,17.60
2023-03-06T06:56:47.071Z,19.37
2023-03-06T06:59:16.934Z,20.23
2023-03-06T07:01:45.125Z,19.47
2023-03-06T07:04:14.175Z,18.60
2023-03-06T07:06:42.662Z,19.07
2023-03-06T07:09:10.141Z,16.40
2023-03-06T07:11:39.325Z,16.00
2023-03-06T07:14:06.840Z,16.30
2023-03-06T07:16:33.787Z,16.10
2023-03-06T07:19:00.740Z,16.30
2023-03-06T07:21:27.781Z,15.50
2023-03-06T07:23:57.520Z,17.27
2023-03-06T07:26:28.343Z,14.40
2023-03-06T07:28:55.527Z,18.23
2023-03-06T07:31:26.299Z,17.20
2023-03-06T07:33:55.121Z,18.70
2023-03-06T07:36:23.901Z,16.30
2023-03-06T07:38:51.063Z,16.13
2023-03-06T07:41:22.217Z,15.17
2023-03-06T07:43:50.759Z,19.30
2023-03-06T07:46:18.326Z,17.13
2023-03-06T07:48:45.394Z,16.60
2023-03-06T07:51:19.481Z,15.80
2023-03-06T07:53:47.559Z,17.40
2023-03-06T07:56:15.246Z,17.40
2023-03-06T07:58:45.956Z,15.50
2023-03-06T08:01:20.264Z,15.97
2023-03-06T08:03:50.431Z,14.73
2023-03-06T08:06:22.156Z,15.10
2023-03-06T08:08:51.339Z,15.13
2023-03-06T08:11:21.963Z,16.93
2023-03-06T08:13:49.931Z,15.43
2023-03-06T08:16:17.893Z,15.10
2023-03-06T08:18:46.403Z,14.87
2023-03-06T08:21:17.810Z,14.10
2023-03-06T08:23:46.289Z,15.30
2023-03-06T08:26:34.082Z,16.53
2023-03-06T08:29:02.992Z,15.10
2023-03-06T08:31:38.174Z,16.40
2023-03-06T08:34:13.078Z,15.20
2023-03-06T08:36:40.737Z,15.67
2023-03-06T08:39:08.489Z,14.27
2023-03-06T08:41:37.369Z,15.70
2023-03-06T08:44:05.610Z,16.10
2023-03-06T08:46:34.290Z,14.03
2023-03-06T08:49:01.924Z,14.27
2023-03-06T08:51:29.249Z,14.87
2023-03-06T08:53:58.427Z,16.43
2023-03-06T08:56:30.535Z,15.70
2023-03-06T08:59:00.957Z,14.40
2023-03-06T09:01:38.378Z,14.17
2023-03-06T09:04:09.871Z,15.30
2023-03-06T09:06:41.666Z,13.67
2023-03-06T09:09:09.425Z,13.90
2023-03-06T09:11:36.502Z,14.10
2023-03-06T09:14:04.092Z,13.83
2023-03-06T09:16:31.837Z,21.50
2023-03-06T09:18:59.176Z,16.93
2023-03-06T09:21:28.772Z,16.27
2023-03-06T09:23:56.251Z,13.07
2023-03-06T09:26:32.793Z,13.47
2023-03-06T09:29:07.906Z,12.13
2023-03-06T09:31:35.007Z,15.53
2023-03-06T09:34:02.041Z,13.90
2023-03-06T09:36:29.002Z,12.30
2023-03-06T09:38:55.989Z,10.80
2023-03-06T09:41:40.668Z,10.90
2023-03-06T09:44:20.364Z,9.80
2023-03-06T09:47:24.885Z,11.43
2023-03-06T09:50:05.166Z,12.93
2023-03-06T09:52:37.736Z,12.10
2023-03-06T09:55:28.365Z,12.20
2023-03-06T09:58:07.452Z,9.80
2023-03-06T10:00:42.095Z,12.00
2023-03-06T10:03:27.936Z,11.77
2023-03-06T10:06:20.883Z,12.07
2023-03-06T10:09:14.616Z,11.90
2023-03-06T10:11:48.429Z,12.80
2023-03-06T10:14:49.028Z,12.70
2023-03-06T10:17:20.846Z,12.63
2023-03-06T10:19:47.812Z,13.57
2023-03-06T10:22:39.466Z,12.90
2023-03-06T10:25:28.725Z,13.20
2023-03-06T10:28:18.785Z,13.20
2023-03-06T10:30:53.256Z,12.00
2023-03-06T10:33:54.760Z,12.60
2023-03-06T10:36:28.099Z,12.77
2023-03-06T10:38:58.675Z,11.70
2023-03-06T10:41:29.706Z,11.83
2023-03-06T10:44:18.954Z,12.40
2023-03-06T10:46:50.315Z,11.80
2023-03-06T10:49:35.621Z,13.00
2023-03-06T10:52:14.869Z,12.73
2023-03-06T10:54:45.274Z,12.67
2023-03-06T10:57:27.176Z,12.47
2023-03-06T10:59:58.477Z,11.67
2023-03-06T11:02:29.609Z,14.23
2023-03-06T11:05:00.623Z,12.27
2023-03-06T11:07:30.918Z,16.00
2023-03-06T11:09:57.904Z,13.07
2023-03-06T11:12:38.056Z,12.93
2023-03-06T11:15:24.976Z,14.23
2023-03-06T11:18:35.339Z,13.87
2023-03-06T11:21:09.641Z,13.13
2023-03-06T11:23:45.853Z,14.20
2023-03-06T11:26:25.846Z,12.03
2023-03-06T11:29:29.424Z,12.57
2023-03-06T11:32:21.318Z,12.87
2023-03-06T11:35:12.870Z,13.37
2023-03-06T11:37:51.607Z,26.30
2023-03-06T11:40:32.273Z,26.60
2023-03-06T11:43:36.065Z,13.07
2023-03-06T11:46:35.654Z,14.37
2023-03-06T11:49:12.017Z,13.17
2023-03-06T11:51:52.404Z,13.70
2023-03-06T11:54:20.061Z,13.03
2023-03-06T11:56:58.097Z,12.53
2023-03-06T11:59:35.254Z,11.93
2023-03-06T12:02:17.307Z,12.90
2023-03-06T12:05:21.534Z,13.70
2023-03-06T12:08:01.817Z,13.90
2023-03-06T12:10:40.001Z,15.03
2023-03-06T12:13:07.010Z,13.87
2023-03-06T12:16:27.650Z,13.43
2023-03-06T12:18:57.573Z,13.43
2023-03-06T12:21:58.323Z,14.27
2023-03-06T12:24:46.484Z,13.80
2023-03-06T12:27:38.704Z,12.33
2023-03-06T12:30:14.372Z,15.00
2023-03-06T12:33:11.568Z,12.90
2023-03-06T12:36:09.211Z,14.17
2023-03-06T12:38:55.216Z,12.60
2023-03-06T12:42:17.808Z,14.57
2023-03-06T12:45:10.774Z,13.53
2023-03-06T12:47:44.602Z,13.57
2023-03-06T12:50:38.771Z,17.20
2023-03-06T12:53:42.111Z,12.33
2023-03-06T12:56:10.178Z,15.90
2023-03-06T12:58:49.080Z,12.70
2023-03-06T13:01:43.387Z,11.50
2023-03-06T13:04:56.628Z,16.60
2023-03-06T13:08:05.595Z,13.77
2023-03-06T13:10:35.313Z,12.10
2023-03-06T13:13:44.193Z,12.40
2023-03-06T13:16:23.367Z,12.83
2023-03-06T13:19:02.118Z,13.10
2023-03-06T13:22:00.514Z,13.13
2023-03-06T13:24:35.016Z,13.20
2023-03-06T13:27:05.140Z,12.30
2023-03-06T13:29:37.666Z,13.03
2023-03-06T13:32:04.652Z,12.50
2023-03-06T13:34:31.665Z,13.40
2023-03-06T13:37:17.382Z,13.60
2023-03-06T13:39:59.108Z,11.83
2023-03-06T13:42:37.071Z,10.70
2023-03-06T13:45:18.382Z,12.67
2023-03-06T13:50:48.202Z,14.53
2023-03-06T13:53:33.261Z,12.27
2023-03-06T13:56:18.610Z,13.00
2023-03-06T13:58:54.532Z,11.53
2023-03-06T14:02:01.195Z,12.20
2023-03-06T14:04:54.653Z,13.63
2023-03-06T14:07:32.377Z,10.47
2023-03-06T14:10:19.351Z,12.07
2023-03-06T14:12:49.350Z,10.90
2023-03-06T14:15:36.704Z,10.63
2023-03-06T14:18:38.464Z,11.77
2023-03-06T14:21:13.488Z,10.37
2023-03-06T14:23:42.778Z,11.60
2023-03-06T14:26:25.403Z,11.37
2023-03-06T14:28:52.301Z,12.13
2023-03-06T14:31:26.505Z,12.63
2023-03-06T14:34:01.477Z,11.10
2023-03-06T14:36:37.146Z,14.47
2023-03-06T14:39:23.078Z,12.13
2023-03-06T14:41:50.292Z,11.23
2023-03-06T14:44:20.776Z,11.97
2023-03-06T14:46:57.164Z,13.50
2023-03-06T14:49:26.542Z,11.90
2023-03-06T14:51:57.110Z,13.70
2023-03-06T14:54:32.844Z,11.10
2023-03-06T14:57:20.805Z,11.60
2023-03-06T14:59:59.517Z,10.93
2023-03-06T15:02:33.097Z,13.60
2023-03-06T15:05:16.451Z,13.63
2023-03-06T15:07:44.828Z,14.40
2023-03-06T15:10:29.273Z,14.53
2023-03-06T15:12:56.853Z,13.70
2023-03-06T15:15:33.055Z,12.50
2023-03-06T15:18:00.535Z,14.57
2023-03-06T15:21:18.949Z,12.00
2023-03-06T15:23:52.540Z,12.70
2023-03-06T15:26:31.875Z,13.80
2023-03-06T15:29:11.024Z,13.83
2023-03-06T15:31:44.064Z,14.10
2023-03-06T15:34:11.075Z,14.40
2023-03-06T15:36:39.519Z,13.03
2023-03-06T15:39:34.519Z,13.27
2023-03-06T15:42:26.520Z,14.03
2023-03-06T15:44:57.106Z,15.57
2023-03-06T15:47:24.678Z,15.20
2023-03-06T15:49:53.468Z,13.87
2023-03-06T15:52:22.531Z,14.87
2023-03-06T15:54:50.472Z,13.73
2023-03-06T15:57:26.593Z,15.40
2023-03-06T15:59:54.604Z,13.13
2023-03-06T16:02:24.584Z,14.87
2023-03-06T16:04:52.987Z,16.97
2023-03-06T16:07:21.020Z,16.27
2023-03-06T16:09:48.629Z,15.37
2023-03-06T16:12:22.308Z,15.60
2023-03-06T16:14:50.198Z,14.77
2023-03-06T16:17:18.228Z,15.70
2023-03-06T16:19:46.048Z,14.90
2023-03-06T16:22:13.827Z,15.87
2023-03-06T16:24:40.837Z,17.73
2023-03-06T16:27:18.915Z,14.53
2023-03-06T16:29:45.922Z,15.40
2023-03-06T16:32:12.987Z,17.57
2023-03-06T16:34:40.086Z,14.80
2023-03-06T16:37:12.623Z,15.30
2023-03-06T16:39:39.603Z,16.27
2023-03-06T16:42:06.740Z,15.40
2023-03-06T16:44:33.823Z,15.53
2023-03-06T16:47:01.389Z,15.73
2023-03-06T16:49:28.390Z,15.87
2023-03-06T16:51:56.422Z,16.63
2023-03-06T16:54:26.514Z,14.70
2023-03-06T16:56:53.978Z,15.67
2023-03-06T16:59:21.013Z,15.03
2023-03-06T17:01:48.038Z,15.50
2023-03-06T17:04:15.182Z,16.07
2023-03-06T17:06:43.351Z,17.83
2023-03-06T17:09:14.678Z,17.70
2023-03-06T17:11:45.084Z,17.17
2023-03-06T17:14:12.784Z,15.17
2023-03-06T17:16:40.621Z,16.30
2023-03-06T17:19:07.990Z,17.10
2023-03-06T17:21:35.742Z,16.40
2023-03-06T17:24:04.024Z,18.50
2023-03-06T17:26:31.238Z,17.07
2023-03-06T17:28:58.477Z,18.80
2023-03-06T17:31:27.893Z,16.17
2023-03-06T17:34:00.742Z,17.33
2023-03-06T17:36:30.137Z,19.70
2023-03-06T17:39:00.183Z,17.70
2023-03-06T17:41:27.791Z,17.80
2023-03-06T17:43:59.320Z,18.50
2023-03-06T17:46:27.004Z,18.43
2023-03-06T17:48:55.589Z,18.07
2023-03-06T17:51:22.679Z,19.80
2023-03-06T17:53:49.900Z,17.60
2023-03-06T17:56:16.973Z,20.67
2023-03-06T17:58:44.562Z,27.30
2023-03-06T18:01:21.235Z,40.07
2023-03-06T18:03:51.375Z,40.10
2023-03-06T18:06:20.814Z,57.60
2023-03-06T18:08:51.017Z,34.23
2023-03-06T18:11:19.716Z,23.07
2023-03-06T18:13:46.737Z,21.87
2023-03-06T18:16:17.550Z,18.50
2023-03-06T18:18:45.834Z,16.33
2023-03-06T18:21:16.993Z,15.80
2023-03-06T18:23:44.213Z,17.40
2023-03-06T18:26:27.881Z,17.97
2023-03-06T18:28:58.726Z,20.50
2023-03-06T18:31:32.277Z,19.40
2023-03-06T18:34:08.696Z,21.00
2023-03-06T18:36:37.196Z,17.67
2023-03-06T18:39:08.685Z,18.37
2023-03-06T18:41:37.429Z,19.67
2023-03-06T18:44:05.909Z,22.77
2023-03-06T18:46:37.306Z,21.80
2023-03-06T18:49:05.667Z,20.07
2023-03-06T18:51:33.681Z,18.23
2023-03-06T18:54:02.608Z,16.23
2023-03-06T18:56:29.860Z,19.07
2023-03-06T18:59:12.559Z,17.63
2023-03-06T19:01:53.577Z,18.03
2023-03-06T19:04:33.823Z,15.83
2023-03-06T19:07:07.074Z,15.73
2023-03-06T19:09:48.814Z,13.77
2023-03-06T19:12:38.196Z,16.27
2023-03-06T19:15:27.234Z,15.07
2023-03-06T19:18:11.761Z,14.33
2023-03-06T19:20:44.511Z,24.47
2023-03-06T19:23:31.154Z,31.80
2023-03-06T19:26:01.150Z,26.30
2023-03-06T19:28:30.677Z,28.67
2023-03-06T19:31:00.030Z,29.90
2023-03-06T19:33:27.480Z,35.93
2023-03-06T19:35:55.458Z,39.43
2023-03-06T19:38:44.548Z,35.33
2023-03-06T19:41:14.012Z,24.23
2023-03-06T19:43:52.818Z,17.43
2023-03-06T19:46:23.247Z,14.73
2023-03-06T19:48:56.978Z,16.83
2023-03-06T19:51:25.346Z,17.60
2023-03-06T19:53:53.169Z,16.50
2023-03-06T19:56:27.890Z,17.50
2023-03-06T19:59:22.516Z,17.63
2023-03-06T20:02:15.902Z,13.20
2023-03-06T20:04:46.979Z,15.23
2023-03-06T20:07:15.702Z,14.13
2023-03-06T20:09:55.813Z,14.03
2023-03-06T20:12:42.706Z,14.30
2023-03-06T20:15:25.923Z,14.10
2023-03-06T20:17:56.945Z,15.10
2023-03-06T20:20:23.957Z,15.10
2023-03-06T20:22:55.934Z,14.57
2023-03-06T20:25:28.600Z,14.60
2023-03-06T20:27:57.170Z,14.17
2023-03-06T20:30:31.487Z,13.60
2023-03-06T20:33:03.850Z,14.20
2023-03-06T20:35:32.789Z,13.97
2023-03-06T20:38:03.002Z,14.37
2023-03-06T20:40:38.063Z,13.17
2023-03-06T20:43:05.340Z,12.67
2023-03-06T20:45:33.357Z,14.40
2023-03-06T20:48:00.594Z,15.13
2023-03-06T20:50:28.352Z,14.37
2023-03-06T20:53:13.038Z,14.80
2023-03-06T20:55:40.019Z,13.17
2023-03-06T20:58:08.904Z,13.07
2023-03-06T21:00:35.890Z,13.17
2023-03-06T21:03:02.956Z,13.97
2023-03-06T21:05:29.978Z,15.53
2023-03-06T21:07:56.972Z,15.13
2023-03-06T21:10:23.912Z,14.07
2023-03-06T21:12:50.986Z,13.83
2023-03-06T21:15:19.958Z,13.43
2023-03-06T21:17:46.945Z,13.13
2023-03-06T21:20:14.082Z,13.00
2023-03-06T21:22:41.131Z,13.00
2023-03-06T21:25:08.408Z,13.37
2023-03-06T21:27:35.381Z,13.40
2023-03-06T21:30:03.501Z,13.70
2023-03-06T21:32:30.556Z,12.50
2023-03-06T21:34:57.669Z,13.40
2023-03-06T21:37:24.742Z,13.10
2023-03-06T21:39:52.248Z,15.20
2023-03-06T21:42:19.170Z,13.97
2023-03-06T21:44:46.221Z,16.43
2023-03-06T21:47:13.316Z,14.67
2023-03-06T21:49:40.370Z,15.43
2023-03-06T21:52:07.557Z,15.63
2023-03-06T21:54:34.643Z,14.30
2023-03-06T21:57:01.719Z,14.10
2023-03-06T21:59:28.750Z,13.63
2023-03-06T22:01:55.772Z,16.63
2023-03-06T22:04:22.845Z,14.37
2023-03-06T22:06:49.882Z,13.90
2023-03-06T22:09:19.311Z,14.80
2023-03-06T22:11:46.344Z,14.90
2023-03-06T22:14:14.963Z,16.67
2023-03-06T22:16:42.007Z,14.13
2023-03-06T22:19:09.128Z,14.60
2023-03-06T22:21:36.191Z,14.30
2023-03-06T22:24:03.340Z,14.20
2023-03-06T22:26:30.981Z,15.13
2023-03-06T22:28:58.041Z,16.23
2023-03-06T22:31:29.009Z,15.30
2023-03-06T22:34:00.395Z,17.93
2023-03-06T22:36:33.048Z,16.63
2023-03-06T22:39:02.045Z,15.60
2023-03-06T22:41:29.793Z,14.77
2023-03-06T22:43:59.130Z,15.83
2023-03-06T22:46:27.229Z,15.33
2023-03-06T22:48:57.303Z,14.73
2023-03-06T22:51:24.712Z,15.63
2023-03-06T22:53:52.397Z,15.03
2023-03-06T22:56:22.199Z,14.67
2023-03-06T22:58:49.373Z,13.93
2023-03-06T23:01:19.261Z,16.00
2023-03-06T23:03:50.646Z,14.47
2023-03-06T23:06:24.491Z,15.13
2023-03-06T23:08:55.992Z,16.00
2023-03-06T23:11:25.523Z,17.13
2023-03-06T23:13:54.345Z,15.60
2023-03-06T23:16:21.630Z,14.60
2023-03-06T23:18:52.723Z,14.80
2023-03-06T23:21:22.181Z,14.70
2023-03-06T23:23:54.590Z,17.37
2023-03-06T23:26:27.624Z,14.17
2023-03-06T23:28:55.769Z,15.30
2023-03-06T23:31:29.892Z,15.30
2023-03-06T23:33:59.569Z,15.00
2023-03-06T23:36:27.840Z,14.03
2023-03-06T23:38:55.602Z,15.90
2023-03-06T23:41:23.960Z,14.70
2023-03-06T23:43:54.658Z,16.87
2023-03-06T23:46:22.498Z,17.53
2023-03-06T23:48:49.793Z,17.90
2023-03-06T23:51:21.323Z,16.73
2023-03-06T23:53:56.596Z,15.83
2023-03-06T23:56:26.207Z,15.93
2023-03-06T23:58:53.553Z,15.97
